Time;durP1;ratioP1;P1;durP2;ratioP2;P2;SDS_P1;SDS_P2;PMS_P1;PMS_P2;Temp;Humidity;BMP_temperature;BMP_pressure;BME280_temperature;BME280_humidity;BME280_pressure;Samples;Min_cycle;Max_cycle;Signal;HPM_P1;HPM_P2
2023/03/12 00:00:44;;;;;;;15.83;13.00;;;;;;;;;;5077414;28;20237;-68
2023/03/12 00:03:14;;;;;;;16.87;13.27;;;;;;;;;;5077669;28;20576;-68
2023/03/12 00:05:42;;;;;;;16.93;12.83;;;;;;;;;;5077630;28;20202;-68
2023/03/12 00:08:10;;;;;;;20.73;13.57;;;;;;;;;;5078510;28;20678;-68
2023/03/12 00:10:39;;;;;;;16.40;13.43;;;;;;;;;;5079182;28;20600;-68
2023/03/12 00:13:07;;;;;;;18.80;14.03;;;;;;;;;;5077956;28;20206;-68
2023/03/12 00:15:36;;;;;;;19.70;14.03;;;;;;;;;;5077597;28;20262;-68
2023/03/12 00:18:04;;;;;;;18.57;14.20;;;;;;;;;;5064216;28;20229;-68
2023/03/12 00:20:33;;;;;;;19.27;14.27;;;;;;;;;;5077413;28;20722;-68
2023/03/12 00:23:01;;;;;;;16.43;12.27;;;;;;;;;;5077643;28;20216;-68
2023/03/12 00:25:29;;;;;;;17.87;13.33;;;;;;;;;;5077662;28;20205;-68
2023/03/12 00:27:57;;;;;;;18.67;14.17;;;;;;;;;;5077680;28;20245;-68
2023/03/12 00:30:27;;;;;;;18.30;13.63;;;;;;;;;;5076992;28;20256;-68
2023/03/12 00:32:55;;;;;;;16.27;13.90;;;;;;;;;;5080176;28;20687;-68
2023/03/12 00:35:24;;;;;;;20.10;14.57;;;;;;;;;;5081527;28;20316;-68
2023/03/12 00:37:54;;;;;;;19.03;14.30;;;;;;;;;;5081562;28;20202;-68
2023/03/12 00:40:22;;;;;;;23.10;15.40;;;;;;;;;;5081422;28;20257;-68
2023/03/12 00:42:50;;;;;;;18.90;14.33;;;;;;;;;;5081504;28;20236;-68
2023/03/12 00:45:18;;;;;;;20.57;15.23;;;;;;;;;;5081088;28;20559;-68
2023/03/12 00:47:46;;;;;;;20.27;14.93;;;;;;;;;;5081122;28;20650;-68
2023/03/12 00:50:14;;;;;;;18.60;13.93;;;;;;;;;;5081834;28;20222;-67
2023/03/12 00:52:42;;;;;;;18.80;14.13;;;;;;;;;;5081457;28;20210;-68
2023/03/12 00:55:11;;;;;;;19.57;13.13;;;;;;;;;;5081174;28;20225;-68
2023/03/12 00:57:39;;;;;;;18.27;13.50;;;;;;;;;;5081227;28;20206;-68
2023/03/12 01:00:09;;;;;;;20.97;14.37;;;;;;;;;;5080878;28;20293;-68
2023/03/12 01:02:37;;;;;;;20.60;14.87;;;;;;;;;;5080798;28;20276;-69
2023/03/12 01:05:06;;;;;;;17.70;13.70;;;;;;;;;;5080752;28;20220;-68
2023/03/12 01:07:35;;;;;;;19.90;14.07;;;;;;;;;;5081039;28;20210;-68
2023/03/12 01:10:03;;;;;;;18.33;14.50;;;;;;;;;;5080693;28;20238;-68
2023/03/12 01:12:32;;;;;;;19.73;14.53;;;;;;;;;;5080721;28;20210;-68
2023/03/12 01:15:00;;;;;;;18.77;13.50;;;;;;;;;;5080564;28;20234;-68
2023/03/12 01:17:28;;;;;;;19.77;14.87;;;;;;;;;;5080301;28;20216;-68
2023/03/12 01:19:56;;;;;;;20.93;14.63;;;;;;;;;;5080402;28;20230;-68
2023/03/12 01:22:24;;;;;;;18.03;13.33;;;;;;;;;;5080417;28;20639;-69
2023/03/12 01:24:52;;;;;;;18.83;13.73;;;;;;;;;;5080703;28;20209;-68
2023/03/12 01:27:20;;;;;;;21.10;14.00;;;;;;;;;;5080579;28;20294;-68
2023/03/12 01:29:50;;;;;;;20.40;14.80;;;;;;;;;;5080761;28;20313;-68
2023/03/12 01:32:17;;;;;;;23.73;15.20;;;;;;;;;;5080819;28;20206;-68
2023/03/12 01:34:45;;;;;;;20.33;14.43;;;;;;;;;;5080734;28;20241;-68
2023/03/12 01:37:13;;;;;;;19.37;13.77;;;;;;;;;;5080197;28;20241;-68
2023/03/12 01:39:41;;;;;;;19.07;14.40;;;;;;;;;;5084506;28;20232;-68
2023/03/12 01:42:09;;;;;;;20.20;14.30;;;;;;;;;;5079828;28;20285;-68
2023/03/12 01:44:55;;;;;;;18.47;12.93;;;;;;;;;;5080117;28;20203;-68
2023/03/12 01:47:23;;;;;;;19.03;12.97;;;;;;;;;;5080013;28;20206;-68
2023/03/12 01:49:52;;;;;;;20.30;14.03;;;;;;;;;;5079935;28;20226;-68
2023/03/12 01:52:22;;;;;;;16.43;12.77;;;;;;;;;;5079983;28;20209;-69
2023/03/12 01:54:53;;;;;;;18.33;12.77;;;;;;;;;;5079800;28;20210;-68
2023/03/12 01:57:23;;;;;;;16.63;12.37;;;;;;;;;;5079748;28;20717;-68
2023/03/12 01:59:52;;;;;;;19.60;13.63;;;;;;;;;;5079631;28;20706;-69
2023/03/12 02:02:25;;;;;;;21.27;13.47;;;;;;;;;;5079877;28;20210;-69
2023/03/12 02:04:59;;;;;;;15.30;12.07;;;;;;;;;;5079804;28;20292;-68
2023/03/12 02:07:27;;;;;;;19.47;13.03;;;;;;;;;;5080219;28;20213;-68
2023/03/12 02:09:55;;;;;;;16.40;12.30;;;;;;;;;;5079649;28;20238;-68
2023/03/12 02:12:23;;;;;;;19.37;14.07;;;;;;;;;;5080720;28;20206;-69
2023/03/12 02:14:51;;;;;;;22.30;15.07;;;;;;;;;;5079785;28;20233;-68
2023/03/12 02:17:19;;;;;;;21.73;15.80;;;;;;;;;;5079519;28;20317;-69
2023/03/12 02:19:51;;;;;;;21.70;16.03;;;;;;;;;;5079670;28;20237;-68
2023/03/12 02:22:21;;;;;;;23.37;16.10;;;;;;;;;;5079661;28;20287;-68
2023/03/12 02:24:52;;;;;;;25.53;16.53;;;;;;;;;;5079635;28;20288;-69
2023/03/12 02:27:22;;;;;;;22.73;16.03;;;;;;;;;;5079509;28;20198;-68
2023/03/12 02:29:50;;;;;;;24.93;15.83;;;;;;;;;;5079258;28;20236;-68
2023/03/12 02:32:21;;;;;;;22.53;16.07;;;;;;;;;;5079295;28;20225;-68
2023/03/12 02:34:49;;;;;;;23.00;15.20;;;;;;;;;;5079198;28;20210;-68
2023/03/12 02:37:17;;;;;;;25.10;16.17;;;;;;;;;;5079334;28;20321;-69
2023/03/12 02:39:50;;;;;;;23.60;16.17;;;;;;;;;;5078896;28;20332;-68
2023/03/12 02:42:18;;;;;;;24.37;15.90;;;;;;;;;;5078936;28;20566;-68
2023/03/12 02:44:47;;;;;;;24.17;16.30;;;;;;;;;;5079039;28;20212;-68
2023/03/12 02:47:15;;;;;;;22.77;15.30;;;;;;;;;;5079117;28;20256;-68
2023/03/12 02:49:43;;;;;;;21.83;15.27;;;;;;;;;;5079178;28;20265;-68
2023/03/12 02:52:11;;;;;;;20.03;15.53;;;;;;;;;;5079876;28;20559;-68
2023/03/12 02:54:39;;;;;;;22.80;15.30;;;;;;;;;;5079302;28;20202;-68
2023/03/12 02:57:07;;;;;;;21.00;15.63;;;;;;;;;;5079091;28;20316;-68
2023/03/12 02:59:35;;;;;;;21.90;15.50;;;;;;;;;;5078576;28;20261;-68
2023/03/12 03:02:05;;;;;;;20.87;14.87;;;;;;;;;;5078570;28;20229;-67
2023/03/12 03:04:34;;;;;;;22.40;14.67;;;;;;;;;;5078599;28;20640;-68
2023/03/12 03:07:02;;;;;;;20.63;14.67;;;;;;;;;;5078537;28;20677;-68
2023/03/12 03:09:30;;;;;;;20.37;14.50;;;;;;;;;;5078397;28;20268;-68
2023/03/12 03:11:58;;;;;;;20.53;14.60;;;;;;;;;;5078540;28;20728;-68
2023/03/12 03:14:26;;;;;;;18.33;13.63;;;;;;;;;;5078343;28;20619;-68
2023/03/12 03:16:54;;;;;;;20.30;14.33;;;;;;;;;;5078475;28;20230;-68
2023/03/12 03:19:23;;;;;;;22.50;14.30;;;;;;;;;;5078539;28;20705;-68
2023/03/12 03:21:51;;;;;;;20.47;14.90;;;;;;;;;;5078419;28;20206;-68
2023/03/12 03:24:19;;;;;;;19.37;13.90;;;;;;;;;;5078430;28;20206;-68
2023/03/12 03:26:47;;;;;;;21.40;14.10;;;;;;;;;;5078122;28;20202;-67
2023/03/12 03:29:15;;;;;;;21.20;14.87;;;;;;;;;;5077869;28;20226;-67
2023/03/12 03:31:43;;;;;;;20.37;14.17;;;;;;;;;;5077829;28;20574;-67
2023/03/12 03:34:11;;;;;;;25.03;16.03;;;;;;;;;;5078345;28;20779;-68
2023/03/12 03:36:41;;;;;;;25.70;16.97;;;;;;;;;;5078425;28;20261;-68
2023/03/12 03:39:09;;;;;;;21.63;14.80;;;;;;;;;;5077984;28;20209;-68
2023/03/12 03:41:37;;;;;;;30.50;17.50;;;;;;;;;;5078237;28;20214;-68
2023/03/12 03:44:06;;;;;;;22.30;15.70;;;;;;;;;;5078046;28;20673;-68
2023/03/12 03:46:35;;;;;;;23.27;15.40;;;;;;;;;;5080508;28;20205;-68
2023/03/12 03:49:03;;;;;;;23.13;16.13;;;;;;;;;;5098148;28;20254;-69
2023/03/12 03:51:31;;;;;;;26.33;16.00;;;;;;;;;;5097984;28;20217;-69
2023/03/12 03:54:00;;;;;;;25.13;16.53;;;;;;;;;;5098302;28;20201;-65
2023/03/12 03:56:28;;;;;;;26.97;16.10;;;;;;;;;;5097852;28;20654;-65
2023/03/12 03:58:56;;;;;;;24.87;17.53;;;;;;;;;;5097809;28;20241;-66
2023/03/12 04:01:24;;;;;;;24.93;16.87;;;;;;;;;;5097935;28;20288;-66
2023/03/12 04:03:53;;;;;;;25.57;17.07;;;;;;;;;;5098078;28;20297;-66
2023/03/12 04:06:20;;;;;;;23.83;16.13;;;;;;;;;;5097973;28;20206;-66
2023/03/12 04:08:48;;;;;;;23.20;16.33;;;;;;;;;;5098058;28;20229;-66
2023/03/12 04:11:19;;;;;;;25.90;16.00;;;;;;;;;;5098019;28;20241;-66
2023/03/12 04:13:47;;;;;;;24.40;16.80;;;;;;;;;;5098229;28;20210;-66
2023/03/12 04:16:16;;;;;;;24.63;17.50;;;;;;;;;;5098154;28;20208;-66
2023/03/12 04:18:44;;;;;;;23.03;15.30;;;;;;;;;;5099104;28;20216;-65
2023/03/12 04:21:14;;;;;;;25.60;16.50;;;;;;;;;;5094527;28;20252;-66
2023/03/12 04:23:42;;;;;;;24.00;16.47;;;;;;;;;;5077963;28;20269;-66
2023/03/12 04:26:10;;;;;;;25.10;15.63;;;;;;;;;;5077751;28;20232;-66
2023/03/12 04:28:40;;;;;;;24.47;16.17;;;;;;;;;;5079559;28;20265;-66
2023/03/12 04:31:08;;;;;;;21.90;15.70;;;;;;;;;;5077626;28;20222;-66
2023/03/12 04:33:37;;;;;;;23.67;15.03;;;;;;;;;;5077929;28;20210;-66
2023/03/12 04:36:06;;;;;;;20.10;15.00;;;;;;;;;;5078221;28;20198;-65
2023/03/12 04:38:34;;;;;;;23.03;16.07;;;;;;;;;;5077779;28;20226;-66
2023/03/12 04:41:06;;;;;;;22.93;15.10;;;;;;;;;;5077735;28;20226;-66
2023/03/12 04:43:34;;;;;;;24.57;15.47;;;;;;;;;;5077951;28;20289;-66
2023/03/12 04:46:04;;;;;;;23.37;14.87;;;;;;;;;;5077281;28;20298;-66
2023/03/12 04:48:33;;;;;;;25.73;16.73;;;;;;;;;;5077594;28;20265;-66
2023/03/12 04:51:03;;;;;;;22.60;15.40;;;;;;;;;;5077516;28;20697;-66
2023/03/12 04:53:32;;;;;;;22.47;14.90;;;;;;;;;;5077577;28;20206;-66
2023/03/12 04:56:00;;;;;;;21.33;14.27;;;;;;;;;;5077584;28;20206;-66
2023/03/12 04:58:28;;;;;;;21.37;14.03;;;;;;;;;;5077648;28;20261;-66
2023/03/12 05:00:56;;;;;;;19.63;13.87;;;;;;;;;;5076800;28;20765;-66
2023/03/12 05:03:26;;;;;;;22.00;14.77;;;;;;;;;;5076790;28;20206;-66
2023/03/12 05:05:54;;;;;;;23.63;14.93;;;;;;;;;;5076905;28;20225;-66
2023/03/12 05:08:22;;;;;;;21.37;14.40;;;;;;;;;;5077056;28;20238;-66
2023/03/12 05:10:50;;;;;;;21.50;14.90;;;;;;;;;;5077005;28;20234;-66
2023/03/12 05:13:19;;;;;;;21.87;15.90;;;;;;;;;;5077074;28;20623;-66
2023/03/12 05:15:49;;;;;;;25.53;16.30;;;;;;;;;;5076607;28;20640;-66
2023/03/12 05:18:19;;;;;;;20.30;14.87;;;;;;;;;;5078548;28;20226;-66
2023/03/12 05:20:57;;;;;;;19.90;14.97;;;;;;;;;;5080536;28;20305;-66
2023/03/12 05:23:25;;;;;;;20.67;14.73;;;;;;;;;;5080768;28;20231;-66
2023/03/12 05:25:53;;;;;;;20.03;13.93;;;;;;;;;;5081239;28;20194;-66
2023/03/12 05:28:26;;;;;;;21.97;15.80;;;;;;;;;;5081142;28;20241;-66
2023/03/12 05:30:54;;;;;;;18.87;13.83;;;;;;;;;;5080197;28;20222;-66
2023/03/12 05:33:22;;;;;;;20.80;14.77;;;;;;;;;;5080472;28;20694;-65
2023/03/12 05:35:52;;;;;;;22.63;14.97;;;;;;;;;;5081095;28;20241;-66
2023/03/12 05:38:20;;;;;;;24.33;14.27;;;;;;;;;;5081453;28;20233;-66
2023/03/12 05:40:51;;;;;;;19.27;14.13;;;;;;;;;;5080359;28;20317;-66
2023/03/12 05:43:19;;;;;;;20.97;15.00;;;;;;;;;;5080418;28;20244;-66
2023/03/12 05:45:48;;;;;;;19.97;14.30;;;;;;;;;;5079833;28;20206;-65
2023/03/12 05:48:16;;;;;;;19.30;13.87;;;;;;;;;;5080405;28;20198;-66
2023/03/12 05:50:44;;;;;;;20.60;14.23;;;;;;;;;;5080287;28;20226;-66
2023/03/12 05:53:14;;;;;;;21.80;15.30;;;;;;;;;;5080234;28;20208;-66
2023/03/12 05:55:42;;;;;;;23.30;14.80;;;;;;;;;;5079974;28;20260;-66
2023/03/12 05:58:10;;;;;;;20.10;14.17;;;;;;;;;;5079775;28;20222;-66
2023/03/12 06:00:40;;;;;;;19.17;14.00;;;;;;;;;;5079665;28;20656;-66
2023/03/12 06:03:08;;;;;;;22.87;15.10;;;;;;;;;;5080105;28;20213;-66
2023/03/12 06:05:36;;;;;;;21.70;15.33;;;;;;;;;;5079820;28;20687;-66
2023/03/12 06:08:05;;;;;;;21.63;14.77;;;;;;;;;;5079787;28;20230;-66
2023/03/12 06:10:37;;;;;;;18.83;13.67;;;;;;;;;;5079675;28;20260;-66
2023/03/12 06:13:05;;;;;;;23.93;14.97;;;;;;;;;;5079778;28;20542;-66
2023/03/12 06:15:33;;;;;;;19.07;13.67;;;;;;;;;;5079667;28;20238;-66
2023/03/12 06:18:01;;;;;;;21.20;15.23;;;;;;;;;;5079812;28;20270;-66
2023/03/12 06:20:29;;;;;;;20.00;13.83;;;;;;;;;;5079960;28;20231;-66
2023/03/12 06:22:57;;;;;;;20.50;14.43;;;;;;;;;;5079663;28;20292;-66
2023/03/12 06:25:25;;;;;;;20.03;13.80;;;;;;;;;;5079735;28;20341;-65
2023/03/12 06:27:55;;;;;;;19.30;13.80;;;;;;;;;;5079618;28;20289;-66
2023/03/12 06:30:23;;;;;;;20.67;14.17;;;;;;;;;;5078941;28;20705;-66
2023/03/12 06:32:51;;;;;;;23.00;14.43;;;;;;;;;;5079136;28;20271;-66
2023/03/12 06:35:19;;;;;;;24.07;14.20;;;;;;;;;;5079157;28;20553;-65
2023/03/12 06:37:47;;;;;;;20.97;13.77;;;;;;;;;;5079346;28;20234;-66
2023/03/12 06:40:15;;;;;;;19.33;14.07;;;;;;;;;;5078630;28;20233;-66
2023/03/12 06:42:42;;;;;;;19.47;14.00;;;;;;;;;;5087305;28;20292;-66
2023/03/12 06:45:12;;;;;;;17.97;13.77;;;;;;;;;;5099179;28;20243;-66
2023/03/12 06:47:43;;;;;;;18.33;13.63;;;;;;;;;;5099127;28;20672;-66
2023/03/12 06:50:11;;;;;;;22.50;14.03;;;;;;;;;;5098548;28;20226;-66
2023/03/12 06:52:39;;;;;;;17.23;13.33;;;;;;;;;;5099215;28;20583;-66
2023/03/12 06:55:07;;;;;;;19.30;13.13;;;;;;;;;;5099007;28;20206;-65
2023/03/12 06:57:36;;;;;;;18.23;12.67;;;;;;;;;;5099190;28;20699;-66
2023/03/12 07:00:04;;;;;;;19.73;12.90;;;;;;;;;;5099159;28;20240;-65
2023/03/12 07:02:33;;;;;;;18.53;13.13;;;;;;;;;;5099138;28;20241;-65
2023/03/12 07:05:02;;;;;;;18.47;12.60;;;;;;;;;;5098835;28;20216;-65
2023/03/12 07:07:30;;;;;;;20.27;12.83;;;;;;;;;;5098925;28;20584;-66
2023/03/12 07:09:59;;;;;;;20.87;13.23;;;;;;;;;;5098533;28;20244;-66
2023/03/12 07:12:27;;;;;;;17.00;12.07;;;;;;;;;;5098743;28;20201;-65
2023/03/12 07:14:55;;;;;;;20.23;13.20;;;;;;;;;;5098372;28;20692;-66
2023/03/12 07:17:23;;;;;;;18.10;12.53;;;;;;;;;;5093294;28;20208;-66
2023/03/12 07:19:52;;;;;;;15.67;11.83;;;;;;;;;;5074353;28;20292;-65
2023/03/12 07:22:20;;;;;;;18.30;12.90;;;;;;;;;;5079779;28;20203;-65
2023/03/12 07:24:50;;;;;;;17.37;11.63;;;;;;;;;;5077199;28;20204;-65
2023/03/12 07:27:18;;;;;;;17.03;11.73;;;;;;;;;;5080349;28;20199;-66
2023/03/12 07:29:46;;;;;;;17.20;11.57;;;;;;;;;;5095394;28;20247;-66
2023/03/12 07:32:14;;;;;;;15.77;12.03;;;;;;;;;;5077742;28;20209;-65
2023/03/12 07:34:42;;;;;;;14.87;11.10;;;;;;;;;;5078320;28;20244;-65
2023/03/12 07:37:11;;;;;;;19.03;11.13;;;;;;;;;;5081854;28;20205;-65
2023/03/12 07:39:39;;;;;;;16.93;11.57;;;;;;;;;;5092104;28;20223;-65
2023/03/12 07:42:07;;;;;;;14.73;11.30;;;;;;;;;;5097635;28;20209;-66
2023/03/12 07:44:38;;;;;;;16.93;11.33;;;;;;;;;;5098850;28;20205;-69
2023/03/12 07:47:08;;;;;;;14.77;11.17;;;;;;;;;;5098152;28;20205;-69
2023/03/12 07:49:50;;;;;;;14.03;10.70;;;;;;;;;;5098605;28;20225;-67
2023/03/12 07:52:20;;;;;;;15.23;11.03;;;;;;;;;;5098226;28;20210;-67
2023/03/12 07:54:47;;;;;;;14.43;10.67;;;;;;;;;;5098282;28;20205;-67
2023/03/12 07:57:16;;;;;;;13.30;10.13;;;;;;;;;;5098200;28;20209;-67
2023/03/12 07:59:44;;;;;;;16.50;11.60;;;;;;;;;;5097789;28;20233;-66
2023/03/12 08:02:12;;;;;;;14.73;11.40;;;;;;;;;;5097050;28;20209;-66
2023/03/12 08:04:40;;;;;;;15.53;11.53;;;;;;;;;;5078305;28;20197;-67
2023/03/12 08:07:08;;;;;;;15.90;11.33;;;;;;;;;;5066302;28;20205;-68
2023/03/12 08:09:38;;;;;;;15.47;11.03;;;;;;;;;;5063217;28;20244;-68
2023/03/12 08:12:07;;;;;;;17.03;11.30;;;;;;;;;;5057852;28;20198;-66
2023/03/12 08:14:35;;;;;;;15.77;11.73;;;;;;;;;;5059016;28;20566;-66
2023/03/12 08:17:04;;;;;;;15.13;11.47;;;;;;;;;;5057148;28;20199;-66
2023/03/12 08:19:31;;;;;;;16.43;11.90;;;;;;;;;;5059750;28;20284;-66
2023/03/12 08:21:59;;;;;;;17.30;11.97;;;;;;;;;;5059756;28;20203;-66
2023/03/12 08:24:27;;;;;;;19.43;13.50;;;;;;;;;;5060240;28;20201;-66
2023/03/12 08:26:57;;;;;;;19.33;13.17;;;;;;;;;;5069374;28;20194;-66
2023/03/12 08:29:25;;;;;;;16.53;12.93;;;;;;;;;;5076105;28;20701;-66
2023/03/12 08:31:53;;;;;;;23.03;13.43;;;;;;;;;;5076119;28;20210;-66
2023/03/12 08:34:32;;;;;;;20.27;13.00;;;;;;;;;;5076323;28;20621;-66
2023/03/12 08:37:00;;;;;;;16.67;11.97;;;;;;;;;;5076470;28;20657;-66
2023/03/12 08:39:28;;;;;;;18.53;12.50;;;;;;;;;;5076194;28;20288;-66
2023/03/12 08:41:57;;;;;;;18.00;12.30;;;;;;;;;;5084157;28;20309;-66
2023/03/12 08:44:25;;;;;;;17.47;11.70;;;;;;;;;;5086447;28;20205;-65
2023/03/12 08:46:53;;;;;;;14.07;10.40;;;;;;;;;;5085006;28;20194;-65
2023/03/12 08:49:21;;;;;;;14.00;10.63;;;;;;;;;;5081182;28;20587;-65
2023/03/12 08:51:50;;;;;;;14.43;8.27;;;;;;;;;;5075097;28;20198;-65
2023/03/12 08:54:18;;;;;;;9.93;7.10;;;;;;;;;;5080359;28;20282;-65
2023/03/12 08:56:50;;;;;;;7.93;5.20;;;;;;;;;;5081387;28;20203;-64
2023/03/12 08:59:21;;;;;;;7.67;4.33;;;;;;;;;;5092955;28;20229;-65
2023/03/12 09:01:49;;;;;;;8.47;4.30;;;;;;;;;;5101357;28;20688;-64
2023/03/12 09:04:17;;;;;;;5.33;3.23;;;;;;;;;;5101006;28;20696;-65
2023/03/12 09:06:46;;;;;;;6.10;3.53;;;;;;;;;;5101005;28;20634;-65
2023/03/12 09:09:14;;;;;;;6.20;2.60;;;;;;;;;;5085849;28;20809;-65
2023/03/12 09:11:42;;;;;;;4.97;2.47;;;;;;;;;;5080542;28;20228;-65
2023/03/12 09:14:10;;;;;;;9.70;2.40;;;;;;;;;;5080360;28;20245;-65
2023/03/12 09:17:00;;;;;;;6.53;1.80;;;;;;;;;;5080390;28;20232;-65
2023/03/12 09:19:29;;;;;;;8.27;2.13;;;;;;;;;;5080478;28;20230;-65
2023/03/12 09:21:57;;;;;;;7.20;1.87;;;;;;;;;;5080778;28;20206;-65
2023/03/12 09:24:25;;;;;;;6.83;2.17;;;;;;;;;;5080359;28;20229;-66
2023/03/12 09:26:52;;;;;;;5.30;1.70;;;;;;;;;;5080682;28;20265;-66
2023/03/12 09:29:21;;;;;;;4.83;2.10;;;;;;;;;;5080134;28;20720;-65
2023/03/12 09:31:48;;;;;;;13.67;3.60;;;;;;;;;;5080172;28;20212;-66
2023/03/12 09:34:18;;;;;;;9.13;2.30;;;;;;;;;;5080482;28;20285;-65
2023/03/12 09:36:46;;;;;;;10.70;2.07;;;;;;;;;;5080679;28;20210;-66
2023/03/12 09:39:14;;;;;;;7.93;2.00;;;;;;;;;;5080293;28;20226;-66
2023/03/12 09:41:44;;;;;;;6.80;1.73;;;;;;;;;;5081245;28;20305;-66
2023/03/12 09:44:16;;;;;;;6.07;1.90;;;;;;;;;;5081200;28;20210;-66
2023/03/12 09:46:47;;;;;;;8.70;2.07;;;;;;;;;;5080256;28;20212;-66
2023/03/12 09:49:18;;;;;;;6.03;1.77;;;;;;;;;;5080392;28;20261;-65
2023/03/12 09:51:51;;;;;;;8.43;2.10;;;;;;;;;;5080273;28;20206;-66
2023/03/12 09:54:22;;;;;;;8.93;2.10;;;;;;;;;;5080205;28;20213;-65
2023/03/12 09:56:51;;;;;;;9.93;1.93;;;;;;;;;;5080277;28;20209;-66
2023/03/12 09:59:19;;;;;;;6.97;2.23;;;;;;;;;;5079506;28;20593;-66
2023/03/12 10:01:50;;;;;;;8.00;2.10;;;;;;;;;;5079692;28;20238;-65
2023/03/12 10:04:22;;;;;;;5.97;1.80;;;;;;;;;;5079643;28;20210;-64
2023/03/12 10:06:53;;;;;;;10.30;1.73;;;;;;;;;;5079790;28;20637;-65
2023/03/12 10:09:33;;;;;;;6.83;2.03;;;;;;;;;;5079539;28;20632;-65
2023/03/12 10:12:04;;;;;;;7.37;1.77;;;;;;;;;;5079871;28;20369;-64
2023/03/12 10:14:38;;;;;;;7.53;1.90;;;;;;;;;;5079317;28;20216;-64
2023/03/12 10:17:12;;;;;;;6.43;1.63;;;;;;;;;;5079567;28;20233;-65
2023/03/12 10:19:46;;;;;;;4.53;1.73;;;;;;;;;;5079369;28;20317;-64
2023/03/12 10:22:19;;;;;;;7.60;1.90;;;;;;;;;;5080507;28;20247;-66
2023/03/12 10:24:51;;;;;;;7.83;1.97;;;;;;;;;;5080748;28;20202;-65
2023/03/12 10:27:22;;;;;;;7.90;1.67;;;;;;;;;;5079850;28;20210;-65
2023/03/12 10:29:53;;;;;;;6.93;2.40;;;;;;;;;;5079433;28;20257;-65
2023/03/12 10:32:24;;;;;;;4.87;1.50;;;;;;;;;;5079514;28;20206;-64
2023/03/12 10:34:55;;;;;;;12.23;2.33;;;;;;;;;;5079475;28;20292;-64
2023/03/12 10:37:26;;;;;;;6.50;2.00;;;;;;;;;;5079393;28;20270;-66
2023/03/12 10:39:54;;;;;;;9.27;1.90;;;;;;;;;;5079202;28;20272;-66
2023/03/12 10:42:24;;;;;;;7.50;1.80;;;;;;;;;;5066390;28;20284;-66
2023/03/12 10:44:53;;;;;;;9.93;1.93;;;;;;;;;;5079023;28;20206;-67
2023/03/12 10:47:33;;;;;;;8.03;2.03;;;;;;;;;;5079363;28;20202;-66
2023/03/12 10:50:18;;;;;;;6.67;2.13;;;;;;;;;;5079126;28;20226;-65
2023/03/12 10:52:48;;;;;;;7.83;1.70;;;;;;;;;;5078989;28;20577;-66
2023/03/12 10:55:21;;;;;;;8.10;1.93;;;;;;;;;;5079013;28;20238;-65
2023/03/12 10:57:49;;;;;;;8.40;1.60;;;;;;;;;;5078807;28;20206;-66
2023/03/12 11:00:22;;;;;;;8.00;2.23;;;;;;;;;;5078223;28;20262;-66
2023/03/12 11:03:02;;;;;;;4.83;1.60;;;;;;;;;;5078759;28;20202;-66
2023/03/12 11:05:31;;;;;;;7.07;1.97;;;;;;;;;;5078577;28;20260;-65
2023/03/12 11:08:01;;;;;;;4.10;1.83;;;;;;;;;;5078487;28;20210;-65
2023/03/12 11:10:39;;;;;;;9.93;2.50;;;;;;;;;;5078679;28;20261;-64
2023/03/12 11:13:21;;;;;;;7.97;2.17;;;;;;;;;;5078682;28;20212;-64
2023/03/12 11:15:49;;;;;;;5.30;1.73;;;;;;;;;;5077519;28;20202;-65
2023/03/12 11:18:19;;;;;;;8.77;2.67;;;;;;;;;;5078622;28;20213;-65
2023/03/12 11:20:47;;;;;;;6.00;2.20;;;;;;;;;;5078077;28;20662;-66
2023/03/12 11:23:19;;;;;;;8.30;2.00;;;;;;;;;;5078419;28;20224;-66
2023/03/12 11:25:52;;;;;;;7.40;1.97;;;;;;;;;;5078460;28;20229;-64
2023/03/12 11:28:22;;;;;;;6.27;2.03;;;;;;;;;;5078553;28;20206;-64
2023/03/12 11:30:52;;;;;;;7.83;2.17;;;;;;;;;;5077732;28;20689;-64
2023/03/12 11:33:20;;;;;;;11.73;2.57;;;;;;;;;;5078371;28;20207;-64
2023/03/12 11:35:52;;;;;;;4.70;1.57;;;;;;;;;;5078088;28;20229;-65
2023/03/12 11:38:24;;;;;;;4.20;1.80;;;;;;;;;;5078137;28;20214;-66
2023/03/12 11:40:58;;;;;;;9.50;1.63;;;;;;;;;;5078103;28;20234;-66
2023/03/12 11:43:30;;;;;;;7.93;1.60;;;;;;;;;;5078273;28;20206;-66
2023/03/12 11:46:22;;;;;;;6.67;1.90;;;;;;;;;;5078073;28;20245;-65
2023/03/12 11:48:55;;;;;;;9.83;1.87;;;;;;;;;;5078203;28;20251;-66
2023/03/12 11:51:27;;;;;;;7.77;1.50;;;;;;;;;;5078150;28;20202;-65
2023/03/12 11:54:02;;;;;;;8.53;1.70;;;;;;;;;;5078216;28;20214;-66
2023/03/12 11:56:33;;;;;;;9.10;1.90;;;;;;;;;;5078017;28;20212;-65
2023/03/12 11:59:16;;;;;;;6.03;1.77;;;;;;;;;;5077866;28;20206;-65
2023/03/12 12:01:50;;;;;;;6.27;1.80;;;;;;;;;;5078244;28;20316;-66
2023/03/12 12:04:34;;;;;;;8.97;2.30;;;;;;;;;;5078169;28;20207;-66
2023/03/12 12:07:08;;;;;;;6.57;2.13;;;;;;;;;;5077885;28;20237;-67
2023/03/12 12:09:42;;;;;;;7.93;1.30;;;;;;;;;;5077626;28;20692;-67
2023/03/12 12:12:36;;;;;;;7.10;1.80;;;;;;;;;;5078033;28;20240;-67
2023/03/12 12:15:10;;;;;;;5.63;1.70;;;;;;;;;;5077638;28;20206;-65
2023/03/12 12:17:44;;;;;;;6.20;1.40;;;;;;;;;;5077752;28;20210;-65
2023/03/12 12:20:20;;;;;;;9.57;2.20;;;;;;;;;;5077485;28;20225;-65
2023/03/12 12:22:54;;;;;;;2.97;1.53;;;;;;;;;;5077393;28;20225;-65
2023/03/12 12:25:25;;;;;;;6.90;2.10;;;;;;;;;;5077552;28;20237;-66
2023/03/12 12:28:03;;;;;;;7.90;2.17;;;;;;;;;;5067921;28;20255;-65
2023/03/12 12:30:37;;;;;;;6.50;1.50;;;;;;;;;;5081483;28;20268;-66
2023/03/12 12:33:13;;;;;;;6.00;1.80;;;;;;;;;;5081525;28;20208;-66
2023/03/12 12:35:42;;;;;;;4.43;1.53;;;;;;;;;;5081442;28;20292;-66
2023/03/12 12:38:13;;;;;;;4.03;1.50;;;;;;;;;;5081550;28;20206;-66
2023/03/12 12:40:43;;;;;;;5.10;1.37;;;;;;;;;;5081178;28;20248;-66
2023/03/12 12:43:19;;;;;;;6.10;2.00;;;;;;;;;;5081230;28;20268;-66
2023/03/12 12:45:48;;;;;;;6.80;1.97;;;;;;;;;;5081310;28;20206;-66
2023/03/12 12:48:17;;;;;;;4.90;1.47;;;;;;;;;;5081424;28;20210;-66
2023/03/12 12:50:47;;;;;;;4.93;1.60;;;;;;;;;;5081431;28;20228;-66
2023/03/12 12:53:21;;;;;;;5.87;1.73;;;;;;;;;;5081406;28;20214;-66
2023/03/12 12:55:55;;;;;;;5.17;1.67;;;;;;;;;;5080638;28;20237;-66
2023/03/12 12:58:27;;;;;;;9.33;1.77;;;;;;;;;;5081066;28;20248;-66
2023/03/12 13:00:55;;;;;;;5.67;1.83;;;;;;;;;;5080422;28;20265;-66
2023/03/12 13:03:24;;;;;;;4.40;1.70;;;;;;;;;;5080852;28;20746;-66
2023/03/12 13:05:56;;;;;;;5.30;1.60;;;;;;;;;;5080960;28;20209;-65
2023/03/12 13:08:49;;;;;;;5.23;1.80;;;;;;;;;;5067709;28;20600;-66
2023/03/12 13:11:25;;;;;;;6.10;1.43;;;;;;;;;;5065911;28;20585;-66
2023/03/12 13:14:08;;;;;;;4.40;1.67;;;;;;;;;;5081046;28;20212;-66
2023/03/12 13:16:37;;;;;;;3.00;1.70;;;;;;;;;;5080469;28;20241;-65
2023/03/12 13:19:08;;;;;;;3.93;1.60;;;;;;;;;;5080569;28;20285;-65
2023/03/12 13:21:39;;;;;;;4.87;1.73;;;;;;;;;;5080712;28;20221;-64
2023/03/12 13:24:15;;;;;;;6.10;1.67;;;;;;;;;;5080511;28;20661;-66
2023/03/12 13:26:56;;;;;;;11.90;2.30;;;;;;;;;;5080863;28;20206;-66
2023/03/12 13:29:36;;;;;;;2.97;1.13;;;;;;;;;;5080037;28;20257;-66
2023/03/12 13:32:04;;;;;;;10.03;2.20;;;;;;;;;;5080401;28;20202;-65
2023/03/12 13:34:50;;;;;;;3.67;1.40;;;;;;;;;;5080606;28;20212;-65
2023/03/12 13:37:28;;;;;;;3.03;1.03;;;;;;;;;;5080281;28;20206;-64
2023/03/12 13:39:59;;;;;;;6.10;1.67;;;;;;;;;;5079787;28;20228;-65
2023/03/12 13:42:39;;;;;;;6.77;2.17;;;;;;;;;;5067292;28;20233;-65
2023/03/12 13:45:27;;;;;;;3.97;1.90;;;;;;;;;;5079868;28;20202;-65
2023/03/12 13:47:58;;;;;;;4.60;2.20;;;;;;;;;;5080129;28;20216;-64
2023/03/12 13:50:26;;;;;;;7.70;1.70;;;;;;;;;;5080022;28;20276;-65
2023/03/12 13:53:00;;;;;;;3.20;1.40;;;;;;;;;;5080276;28;20245;-65
2023/03/12 13:55:29;;;;;;;5.33;1.63;;;;;;;;;;5080034;28;20257;-65
2023/03/12 13:58:00;;;;;;;3.63;1.60;;;;;;;;;;5080170;28;20205;-65
2023/03/12 14:00:29;;;;;;;20.97;12.80;;;;;;;;;;5079841;28;20237;-64
2023/03/12 14:02:59;;;;;;;13.63;4.40;;;;;;;;;;5079505;28;20601;-65
2023/03/12 14:05:27;;;;;;;2.63;1.40;;;;;;;;;;5079781;28;20206;-64
2023/03/12 14:08:08;;;;;;;3.07;1.53;;;;;;;;;;5079452;28;20202;-64
2023/03/12 14:10:47;;;;;;;3.13;1.90;;;;;;;;;;5078153;28;20214;-63
2023/03/12 14:13:32;;;;;;;4.17;1.37;;;;;;;;;;5078701;28;20613;-65
2023/03/12 14:16:09;;;;;;;6.23;2.33;;;;;;;;;;5071110;28;20198;-65
2023/03/12 14:18:38;;;;;;;3.17;1.70;;;;;;;;;;5077881;28;20318;-65
2023/03/12 14:21:07;;;;;;;5.30;1.67;;;;;;;;;;5082384;28;20244;-65
2023/03/12 14:23:38;;;;;;;3.00;1.40;;;;;;;;;;5079523;28;20268;-65
2023/03/12 14:26:07;;;;;;;7.03;1.80;;;;;;;;;;5078827;28;20245;-66
2023/03/12 14:28:38;;;;;;;4.67;1.30;;;;;;;;;;5091932;28;20206;-64
2023/03/12 14:31:10;;;;;;;3.13;1.20;;;;;;;;;;5098076;28;20641;-67
2023/03/12 14:33:45;;;;;;;6.87;1.40;;;;;;;;;;5098314;28;20259;-63
2023/03/12 14:36:15;;;;;;;4.37;1.10;;;;;;;;;;5097420;28;20229;-63
2023/03/12 14:38:44;;;;;;;3.87;1.27;;;;;;;;;;5098966;28;20205;-63
2023/03/12 14:41:15;;;;;;;5.63;1.40;;;;;;;;;;5079183;28;20226;-62
2023/03/12 14:43:45;;;;;;;5.07;1.73;;;;;;;;;;5078214;28;20257;-63